createdAt,value
2018-10-17T00:02:07.714Z,100608.06
2018-10-17T00:04:35.787Z,100604.65
2018-10-17T00:07:03.934Z,100605.37
2018-10-17T00:09:31.967Z,100599.84
2018-10-17T00:12:00.047Z,100603.47
2018-10-17T00:14:28.230Z,100597.00
2018-10-17T00:16:56.319Z,100602.13
2018-10-17T00:19:24.426Z,100601.44
2018-10-17T00:21:52.500Z,100600.23
2018-10-17T00:24:20.582Z,100602.14
2018-10-17T00:26:48.983Z,100600.97
2018-10-17T00:29:17.122Z,100606.49
2018-10-17T00:31:45.191Z,100600.72
2018-10-17T00:34:13.282Z,100601.32
2018-10-17T00:36:41.353Z,100598.78
2018-10-17T00:39:10.788Z,100601.58
2018-10-17T00:41:44.350Z,100593.48
2018-10-17T00:44:12.430Z,100594.05
2018-10-17T00:46:40.502Z,100590.15
2018-10-17T00:49:08.619Z,100594.86
2018-10-17T00:51:36.666Z,100591.73
2018-10-17T00:54:04.959Z,100596.08
2018-10-17T00:56:33.031Z,100595.34
2018-10-17T00:59:09.215Z,100594.64
2018-10-17T01:01:37.770Z,100588.47
2018-10-17T01:04:06.367Z,100592.73
2018-10-17T01:06:34.751Z,100592.33
2018-10-17T01:09:06.018Z,100592.95
2018-10-17T01:11:34.227Z,100591.67
2018-10-17T01:14:02.435Z,100588.17
2018-10-17T01:16:30.559Z,100592.00
2018-10-17T01:18:58.679Z,100583.03
2018-10-17T01:21:26.963Z,100583.61
2018-10-17T01:23:55.083Z,100588.25
2018-10-17T01:26:23.414Z,100585.74
2018-10-17T01:28:51.992Z,100590.95
2018-10-17T01:31:20.145Z,100582.17
2018-10-17T01:33:48.218Z,100590.95
2018-10-17T01:36:16.423Z,100592.45
2018-10-17T01:38:44.495Z,100583.59
2018-10-17T01:41:12.598Z,100582.30
2018-10-17T01:43:40.933Z,100583.80
2018-10-17T01:46:09.019Z,100583.03
2018-10-17T01:48:37.098Z,100580.45
2018-10-17T01:51:05.371Z,100580.93
2018-10-17T01:53:33.459Z,100579.23
2018-10-17T01:56:01.535Z,100573.91
2018-10-17T01:58:29.672Z,100570.03
2018-10-17T02:00:58.064Z,100577.48
2018-10-17T02:03:26.041Z,100576.34
2018-10-17T02:05:54.154Z,100579.23
2018-10-17T02:08:22.585Z,100572.98
2018-10-17T02:10:50.682Z,100578.42
2018-10-17T02:13:21.619Z,100576.31
2018-10-17T02:15:50.699Z,100570.17
2018-10-17T02:18:18.977Z,100568.87
2018-10-17T02:20:47.039Z,100568.87
2018-10-17T02:23:15.245Z,100573.84
2018-10-17T02:25:43.393Z,100572.08
2018-10-17T02:28:11.463Z,100571.19
2018-10-17T02:30:39.529Z,100569.91
2018-10-17T02:33:07.603Z,100573.09
2018-10-17T02:35:35.727Z,100575.41
2018-10-17T02:38:03.803Z,100572.80
2018-10-17T02:40:31.862Z,100577.31
2018-10-17T02:42:59.951Z,100572.89
2018-10-17T02:45:28.015Z,100577.04
2018-10-17T02:47:56.088Z,100582.54
2018-10-17T02:50:24.151Z,100581.19
2018-10-17T02:52:52.270Z,100577.69
2018-10-17T02:55:20.322Z,100575.92
2018-10-17T02:57:48.488Z,100571.03
2018-10-17T03:00:16.553Z,100588.28
2018-10-17T03:02:44.622Z,100586.17
2018-10-17T03:05:12.738Z,100587.70
2018-10-17T03:07:40.792Z,100586.89
2018-10-17T03:10:08.953Z,100588.79
2018-10-17T03:12:37.039Z,100588.01
2018-10-17T03:15:05.661Z,100598.53
2018-10-17T03:17:33.752Z,100601.31
2018-10-17T03:20:01.826Z,100595.64
2018-10-17T03:22:29.913Z,100597.47
2018-10-17T03:24:58.081Z,100597.20
2018-10-17T03:27:26.186Z,100595.59
2018-10-17T03:29:54.256Z,100598.45
2018-10-17T03:32:22.327Z,100591.00
2018-10-17T03:34:50.423Z,100602.53
2018-10-17T03:37:18.538Z,100600.45
2018-10-17T03:39:46.587Z,100597.81
2018-10-17T03:42:14.659Z,100597.94
2018-10-17T03:44:42.756Z,100597.94
2018-10-17T03:47:10.884Z,100594.81
2018-10-17T03:49:38.946Z,100600.72
2018-10-17T03:52:06.983Z,100598.09
2018-10-17T03:54:35.091Z,100602.71
2018-10-17T03:57:03.163Z,100611.73
2018-10-17T03:59:31.307Z,100608.67
2018-10-17T04:01:59.322Z,100608.67
2018-10-17T04:04:27.475Z,100607.25
2018-10-17T04:06:55.552Z,100611.27
2018-10-17T04:09:23.642Z,100605.67
2018-10-17T04:11:51.713Z,100611.85
2018-10-17T04:14:19.794Z,100612.61
2018-10-17T04:16:47.866Z,100615.57
2018-10-17T04:19:15.966Z,100623.02
2018-10-17T04:21:44.056Z,100616.63
2018-10-17T04:24:12.139Z,100618.47
2018-10-17T04:26:40.211Z,100623.11
2018-10-17T04:29:08.303Z,100613.80
2018-10-17T04:31:36.370Z,100614.44
2018-10-17T04:34:04.554Z,100621.42
2018-10-17T04:36:32.631Z,100613.97
2018-10-17T04:39:00.719Z,100614.10
2018-10-17T04:41:28.790Z,100617.35
2018-10-17T04:43:56.875Z,100612.09
2018-10-17T04:46:24.963Z,100612.69
2018-10-17T04:48:53.061Z,100616.03
2018-10-17T04:51:21.128Z,100612.97
2018-10-17T04:53:49.208Z,100612.91
2018-10-17T04:56:17.310Z,100612.22
2018-10-17T04:58:45.382Z,100608.62
2018-10-17T05:01:13.499Z,100604.95
2018-10-17T05:03:41.542Z,100604.77
2018-10-17T05:06:09.695Z,100609.56
2018-10-17T05:08:37.915Z,100606.25
2018-10-17T05:11:06.428Z,100611.55
2018-10-17T05:13:34.471Z,100614.10
2018-10-17T05:16:02.543Z,100621.70
2018-10-17T05:18:30.629Z,100614.45
2018-10-17T05:20:58.701Z,100617.58
2018-10-17T05:23:26.765Z,100620.59
2018-10-17T05:25:54.885Z,100618.30
2018-10-17T05:28:22.957Z,100621.83
2018-10-17T05:30:51.104Z,100619.94
2018-10-17T05:33:19.184Z,100621.83
2018-10-17T05:35:47.484Z,100620.88
2018-10-17T05:38:15.548Z,100616.87
2018-10-17T05:40:43.629Z,100615.98
2018-10-17T05:43:11.789Z,100616.53
2018-10-17T05:45:39.765Z,100618.87
2018-10-17T05:48:07.838Z,100619.72
2018-10-17T05:50:36.059Z,100614.62
2018-10-17T05:53:04.411Z,100617.22
2018-10-17T05:55:32.433Z,100618.04
2018-10-17T05:58:00.686Z,100615.57
2018-10-17T06:00:28.751Z,100619.92
2018-10-17T06:02:56.822Z,100619.34
2018-10-17T06:05:24.882Z,100623.42
2018-10-17T06:07:53.037Z,100621.52
2018-10-17T06:10:21.261Z,100626.48
2018-10-17T06:12:49.179Z,100627.43
2018-10-17T06:15:17.245Z,100619.28
2018-10-17T06:17:45.385Z,100617.86
2018-10-17T06:20:13.410Z,100618.40
2018-10-17T06:22:41.503Z,100623.83
2018-10-17T06:25:10.219Z,100615.96
2018-10-17T06:27:38.188Z,100619.87
2018-10-17T06:30:07.688Z,100617.09
2018-10-17T06:32:35.770Z,100612.84
2018-10-17T06:35:03.850Z,100618.94
2018-10-17T06:37:31.906Z,100611.91
2018-10-17T06:39:59.971Z,100616.68
2018-10-17T06:42:28.056Z,100613.73
2018-10-17T06:44:56.119Z,100615.98
2018-10-17T06:47:24.250Z,100617.41
2018-10-17T06:49:52.333Z,100620.46
2018-10-17T06:52:20.416Z,100624.84
2018-10-17T06:54:48.487Z,100629.13
2018-10-17T06:57:16.641Z,100627.23
2018-10-17T06:59:44.883Z,100634.14
2018-10-17T07:02:12.998Z,100631.47
2018-10-17T07:04:41.023Z,100635.08
2018-10-17T07:07:09.163Z,100642.01
2018-10-17T07:09:37.197Z,100640.83
2018-10-17T07:12:05.780Z,100633.35
2018-10-17T07:14:33.860Z,100635.22
2018-10-17T07:17:01.984Z,100636.30
2018-10-17T07:19:30.030Z,100638.72
2018-10-17T07:21:58.336Z,100639.90
2018-10-17T07:24:26.422Z,100635.69
2018-10-17T07:26:54.500Z,100637.79
2018-10-17T07:29:22.687Z,100634.75
2018-10-17T07:31:50.660Z,100638.36
2018-10-17T07:34:18.763Z,100633.65
2018-10-17T07:36:46.837Z,100633.47
2018-10-17T07:39:14.927Z,100631.16
2018-10-17T07:41:43.073Z,100625.45
2018-10-17T07:44:11.159Z,100628.27
2018-10-17T07:46:39.362Z,100633.33
2018-10-17T07:49:07.453Z,100637.70
2018-10-17T07:51:35.519Z,100631.39
2018-10-17T07:54:03.694Z,100634.84
2018-10-17T07:56:31.697Z,100630.58
2018-10-17T07:58:59.781Z,100632.97
2018-10-17T08:01:27.840Z,100629.20
2018-10-17T08:03:55.974Z,100625.50
2018-10-17T08:06:23.983Z,100628.93
2018-10-17T08:08:52.050Z,100634.37
2018-10-17T08:11:20.138Z,100630.56
2018-10-17T08:13:48.222Z,100631.06
2018-10-17T08:16:16.323Z,100629.07
2018-10-17T08:18:44.407Z,100626.70
2018-10-17T08:21:12.765Z,100625.67
2018-10-17T08:23:40.815Z,100626.40
2018-10-17T08:26:08.899Z,100628.88
2018-10-17T08:28:37.004Z,100632.63
2018-10-17T08:31:05.092Z,100632.30
2018-10-17T08:33:33.164Z,100625.92
2018-10-17T08:36:01.387Z,100625.44
2018-10-17T08:38:29.331Z,100632.25
2018-10-17T08:40:57.508Z,100626.18
2018-10-17T08:43:25.515Z,100619.36
2018-10-17T08:45:53.600Z,100625.20
2018-10-17T08:48:21.689Z,100627.13
2018-10-17T08:50:49.880Z,100620.72
2018-10-17T08:53:17.878Z,100617.11
2018-10-17T08:55:45.959Z,100624.38
2018-10-17T08:58:14.031Z,100611.20
2018-10-17T09:00:42.136Z,100615.73
2018-10-17T09:03:10.204Z,100612.79
2018-10-17T09:05:38.295Z,100617.95
2018-10-17T09:08:06.584Z,100619.23
2018-10-17T09:10:34.658Z,100614.72
2018-10-17T09:13:02.924Z,100618.50
2018-10-17T09:15:31.015Z,100612.14
2018-10-17T09:17:59.126Z,100612.98
2018-10-17T09:20:27.443Z,100608.42
2018-10-17T09:22:55.215Z,100609.42
2018-10-17T09:25:23.329Z,100604.63
2018-10-17T09:27:51.436Z,100602.99
2018-10-17T09:30:19.677Z,100604.76
2018-10-17T09:32:47.555Z,100605.58
2018-10-17T09:35:15.632Z,100601.82
2018-10-17T09:37:43.698Z,100599.61
2018-10-17T09:40:12.141Z,100608.04
2018-10-17T09:42:40.963Z,100601.89
2018-10-17T09:45:09.810Z,100603.09
2018-10-17T09:47:37.884Z,100600.28
2018-10-17T09:50:06.980Z,100602.44
2018-10-17T09:52:35.059Z,100602.27
2018-10-17T09:55:03.234Z,100598.28
2018-10-17T09:57:31.303Z,100599.95
2018-10-17T09:59:59.395Z,100590.97
2018-10-17T10:02:27.537Z,100585.88
2018-10-17T10:04:55.510Z,100580.66
2018-10-17T10:07:23.585Z,100581.70
2018-10-17T10:09:51.748Z,100575.42
2018-10-17T10:12:19.769Z,100572.86
2018-10-17T10:14:47.845Z,100568.95
2018-10-17T10:17:16.033Z,100564.82
2018-10-17T10:19:44.008Z,100559.11
2018-10-17T10:22:12.143Z,100556.72
2018-10-17T10:24:40.215Z,100551.84
2018-10-17T10:27:08.255Z,100554.88
2018-10-17T10:29:36.448Z,100552.97
2018-10-17T10:32:04.459Z,100548.13
2018-10-17T10:34:32.883Z,100543.57
2018-10-17T10:37:00.919Z,100541.31
2018-10-17T10:39:29.254Z,100540.77
2018-10-17T10:41:57.311Z,100539.72
2018-10-17T10:44:25.455Z,100532.03
2018-10-17T10:46:53.620Z,100522.37
2018-10-17T10:49:21.712Z,100521.42
2018-10-17T10:51:49.793Z,100518.20
2018-10-17T10:54:17.890Z,100516.78
2018-10-17T10:56:46.269Z,100520.38
2018-10-17T10:59:14.474Z,100512.73
2018-10-17T11:01:42.439Z,100507.27
2018-10-17T11:04:10.531Z,100509.45
2018-10-17T11:06:38.712Z,100507.27
2018-10-17T11:09:07.642Z,100497.45
2018-10-17T11:11:35.799Z,100498.61
2018-10-17T11:14:04.091Z,100493.89
2018-10-17T11:16:32.080Z,100496.18
2018-10-17T11:19:00.228Z,100491.95
2018-10-17T11:21:28.292Z,100499.46
2018-10-17T11:23:56.371Z,100494.45
2018-10-17T11:26:24.435Z,100497.09
2018-10-17T11:28:52.758Z,100481.88
2018-10-17T11:31:20.871Z,100489.51
2018-10-17T11:33:48.951Z,100486.41
2018-10-17T11:36:17.018Z,100486.27
2018-10-17T11:38:45.095Z,100492.02
2018-10-17T11:41:13.310Z,100486.15
2018-10-17T11:43:41.334Z,100482.89
2018-10-17T11:46:09.399Z,100479.02
2018-10-17T11:48:37.469Z,100471.37
2018-10-17T11:51:05.891Z,100475.13
2018-10-17T11:53:33.939Z,100468.61
2018-10-17T11:56:02.474Z,100465.96
2018-10-17T11:58:30.743Z,100460.31
2018-10-17T12:00:58.827Z,100461.20
2018-10-17T12:03:26.954Z,100457.17
2018-10-17T12:05:55.119Z,100448.00
2018-10-17T12:08:23.029Z,100449.09
2018-10-17T12:10:51.193Z,100439.55
2018-10-17T12:13:19.350Z,100443.52
2018-10-17T12:15:47.444Z,100441.47
2018-10-17T12:18:15.665Z,100437.67
2018-10-17T12:20:43.783Z,100429.53
2018-10-17T12:23:12.063Z,100430.91
2018-10-17T12:25:40.206Z,100425.02
2018-10-17T12:28:08.405Z,100422.52
2018-10-17T12:30:36.380Z,100424.78
2018-10-17T12:33:04.468Z,100417.77
2018-10-17T12:35:32.612Z,100418.01
2018-10-17T12:38:00.686Z,100417.72
2018-10-17T12:40:29.015Z,100411.45
2018-10-17T12:42:56.933Z,100402.39
2018-10-17T12:45:25.063Z,100410.53
2018-10-17T12:47:53.097Z,100404.76
2018-10-17T12:50:21.316Z,100403.63
2018-10-17T12:52:49.518Z,100399.02
2018-10-17T12:55:17.549Z,100400.11
2018-10-17T12:57:45.562Z,100400.48
2018-10-17T13:00:13.633Z,100393.59
2018-10-17T13:02:41.844Z,100394.33
2018-10-17T13:05:10.732Z,100396.95
2018-10-17T13:07:39.032Z,100395.92
2018-10-17T13:10:08.317Z,100386.14
2018-10-17T13:12:36.409Z,100390.39
2018-10-17T13:15:05.416Z,100394.39
2018-10-17T13:17:33.488Z,100383.95
2018-10-17T13:20:01.587Z,100381.56
2018-10-17T13:22:29.676Z,100386.30
2018-10-17T13:24:57.858Z,100381.30
2018-10-17T13:27:25.933Z,100376.49
2018-10-17T13:29:54.006Z,100374.84
2018-10-17T13:32:22.184Z,100368.06
2018-10-17T13:34:50.254Z,100359.63
2018-10-17T13:37:18.451Z,100368.91
2018-10-17T13:39:46.415Z,100359.42
2018-10-17T13:42:14.567Z,100367.09
2018-10-17T13:44:42.591Z,100356.19
2018-10-17T13:47:10.777Z,100362.37
2018-10-17T13:49:38.896Z,100360.13
2018-10-17T13:52:06.951Z,100359.62
2018-10-17T13:54:35.148Z,100355.82
2018-10-17T13:57:03.340Z,100357.44
2018-10-17T13:59:31.506Z,100362.31
2018-10-17T14:01:59.630Z,100360.44
2018-10-17T14:04:27.761Z,100361.20
2018-10-17T14:06:55.972Z,100363.59
2018-10-17T14:09:24.063Z,100367.89
2018-10-17T14:11:52.258Z,100368.39
2018-10-17T14:14:20.290Z,100368.89
2018-10-17T14:16:48.442Z,100361.27
2018-10-17T14:19:16.521Z,100370.91
2018-10-17T14:21:44.600Z,100369.80
2018-10-17T14:24:12.710Z,100370.09
2018-10-17T14:26:40.726Z,100366.72
2018-10-17T14:29:08.794Z,100363.02
2018-10-17T14:31:36.886Z,100365.41
2018-10-17T14:34:05.358Z,100362.03
2018-10-17T14:36:33.454Z,100359.28
2018-10-17T14:39:01.645Z,100356.78
2018-10-17T14:41:29.608Z,100360.17
2018-10-17T14:43:57.682Z,100363.06
2018-10-17T14:46:25.754Z,100361.07
2018-10-17T14:48:53.831Z,100355.34
2018-10-17T14:51:21.895Z,100354.23
2018-10-17T14:53:49.968Z,100357.48
2018-10-17T14:56:18.206Z,100359.88
2018-10-17T14:58:46.406Z,100364.43
2018-10-17T15:01:14.465Z,100358.67
2018-10-17T15:03:42.538Z,100360.47
2018-10-17T15:06:10.600Z,100365.16
2018-10-17T15:08:38.675Z,100364.80
2018-10-17T15:11:06.860Z,100369.97
2018-10-17T15:13:34.814Z,100372.64
2018-10-17T15:16:02.874Z,100375.91
2018-10-17T15:18:30.946Z,100372.69
2018-10-17T15:20:59.184Z,100367.22
2018-10-17T15:23:27.623Z,100370.14
2018-10-17T15:25:55.686Z,100370.52
2018-10-17T15:28:23.886Z,100373.77
2018-10-17T15:30:51.955Z,100380.30
2018-10-17T15:33:20.150Z,100381.33
2018-10-17T15:35:48.181Z,100379.08
2018-10-17T15:38:16.245Z,100381.48
2018-10-17T15:40:44.346Z,100384.38
2018-10-17T15:43:12.628Z,100382.66
2018-10-17T15:45:40.890Z,100381.05
2018-10-17T15:48:09.042Z,100383.56
2018-10-17T15:50:37.317Z,100378.83
2018-10-17T15:53:05.561Z,100387.83
2018-10-17T15:55:33.979Z,100388.05
2018-10-17T15:58:02.368Z,100390.42
2018-10-17T16:00:30.439Z,100391.55
2018-10-17T16:02:58.590Z,100388.17
2018-10-17T16:05:26.650Z,100395.78
2018-10-17T16:07:54.685Z,100394.64
2018-10-17T16:10:22.777Z,100403.88
2018-10-17T16:12:51.241Z,100399.61
2018-10-17T16:15:19.287Z,100401.09
2018-10-17T16:17:47.357Z,100402.58
2018-10-17T16:20:15.491Z,100404.56
2018-10-17T16:22:43.544Z,100404.74
2018-10-17T16:25:11.586Z,100406.22
2018-10-17T16:27:39.668Z,100404.45
2018-10-17T16:30:09.757Z,100408.28
2018-10-17T16:32:37.870Z,100416.23
2018-10-17T16:35:06.436Z,100413.58
2018-10-17T16:37:34.682Z,100417.27
2018-10-17T16:40:02.646Z,100425.08
2018-10-17T16:42:30.727Z,100422.81
2018-10-17T16:44:58.871Z,100418.02
2018-10-17T16:47:26.997Z,100427.09
2018-10-17T16:49:55.196Z,100425.80
2018-10-17T16:52:23.195Z,100430.23
2018-10-17T16:54:51.268Z,100438.40
2018-10-17T16:57:19.381Z,100440.23
2018-10-17T16:59:47.435Z,100441.53
2018-10-17T17:02:15.603Z,100441.98
2018-10-17T17:04:43.687Z,100441.81
2018-10-17T17:07:11.853Z,100444.62
2018-10-17T17:09:39.947Z,100444.19
2018-10-17T17:12:08.050Z,100445.80
2018-10-17T17:14:36.177Z,100458.93
2018-10-17T17:17:04.217Z,100468.37
2018-10-17T17:19:32.648Z,100465.84
2018-10-17T17:22:00.813Z,100469.80
2018-10-17T17:24:28.890Z,100470.00
2018-10-17T17:26:57.018Z,100469.23
2018-10-17T17:29:25.096Z,100464.58
2018-10-17T17:31:53.166Z,100467.52
2018-10-17T17:34:21.362Z,100468.73
2018-10-17T17:36:49.461Z,100469.53
2018-10-17T17:39:17.595Z,100468.99
2018-10-17T17:41:45.679Z,100466.55
2018-10-17T17:44:13.757Z,100467.45
2018-10-17T17:46:41.944Z,100478.13
2018-10-17T17:49:09.975Z,100473.84
2018-10-17T17:51:38.158Z,100481.50
2018-10-17T17:54:06.547Z,100482.28
2018-10-17T17:56:34.623Z,100487.99
2018-10-17T17:59:02.845Z,100488.67
2018-10-17T18:01:30.924Z,100495.61
2018-10-17T18:03:59.087Z,100495.35
2018-10-17T18:06:27.166Z,100497.80
2018-10-17T18:08:55.287Z,100495.74
2018-10-17T18:11:24.733Z,100499.09
2018-10-17T18:13:53.944Z,100500.17
2018-10-17T18:16:22.044Z,100503.59
2018-10-17T18:18:50.205Z,100500.30
2018-10-17T18:21:18.279Z,100498.77
2018-10-17T18:23:46.384Z,100502.66
2018-10-17T18:26:14.828Z,100501.72
2018-10-17T18:28:43.390Z,100503.77
2018-10-17T18:31:11.685Z,100499.98
2018-10-17T18:33:39.783Z,100511.11
2018-10-17T18:36:07.989Z,100505.08
2018-10-17T18:38:36.982Z,100507.60
2018-10-17T18:41:05.188Z,100509.58
2018-10-17T18:43:33.316Z,100512.50
2018-10-17T18:46:01.395Z,100511.23
2018-10-17T18:48:29.478Z,100507.45
2018-10-17T18:50:57.712Z,100513.09
2018-10-17T18:53:25.731Z,100516.14
2018-10-17T18:55:53.840Z,100515.91
2018-10-17T18:58:21.906Z,100516.60
2018-10-17T19:00:49.994Z,100519.91
2018-10-17T19:03:18.135Z,100527.50
2018-10-17T19:05:46.294Z,100527.63
2018-10-17T19:08:14.496Z,100529.27
2018-10-17T19:10:42.626Z,100534.95
2018-10-17T19:13:10.707Z,100538.73
2018-10-17T19:15:38.871Z,100538.52
2018-10-17T19:18:07.097Z,100543.72
2018-10-17T19:20:35.178Z,100545.66
2018-10-17T19:23:03.256Z,100543.59
2018-10-17T19:25:31.344Z,100547.11
2018-10-17T19:27:59.423Z,100552.86
2018-10-17T19:30:27.504Z,100549.91
2018-10-17T19:32:55.637Z,100550.09
2018-10-17T19:35:23.675Z,100549.81
2018-10-17T19:37:51.815Z,100548.14
2018-10-17T19:40:19.909Z,100552.81
2018-10-17T19:42:47.990Z,100556.15
2018-10-17T19:45:16.154Z,100556.32
2018-10-17T19:47:44.184Z,100557.86
2018-10-17T19:50:12.253Z,100560.20
2018-10-17T19:52:40.326Z,100563.05
2018-10-17T19:55:09.312Z,100565.77
2018-10-17T19:57:37.410Z,100570.92
2018-10-17T20:00:07.300Z,100573.34
2018-10-17T20:02:35.417Z,100575.79
2018-10-17T20:05:03.515Z,100579.09
2018-10-17T20:07:31.641Z,100581.50
2018-10-17T20:09:59.693Z,100575.85
2018-10-17T20:12:27.849Z,100579.63
2018-10-17T20:14:55.928Z,100577.39
2018-10-17T20:17:24.007Z,100577.08
2018-10-17T20:19:52.123Z,100581.38
2018-10-17T20:22:21.629Z,100573.44
2018-10-17T20:24:49.671Z,100578.22
2018-10-17T20:27:17.808Z,100573.47
2018-10-17T20:29:45.955Z,100574.23
2018-10-17T20:32:14.038Z,100578.98
2018-10-17T20:34:42.115Z,100573.23
2018-10-17T20:37:10.204Z,100573.72
2018-10-17T20:39:38.277Z,100580.14
2018-10-17T20:42:06.709Z,100582.95
2018-10-17T20:44:34.801Z,100582.47
2018-10-17T20:47:02.887Z,100581.19
2018-10-17T20:49:30.986Z,100588.20
2018-10-17T20:51:59.069Z,100585.56
2018-10-17T20:54:27.192Z,100586.61
2018-10-17T20:56:55.279Z,100588.94
2018-10-17T20:59:23.355Z,100586.77
2018-10-17T21:01:51.454Z,100590.09
2018-10-17T21:04:19.506Z,100591.06
2018-10-17T21:06:47.631Z,100588.90
2018-10-17T21:09:15.889Z,100582.25
2018-10-17T21:11:44.012Z,100584.09
2018-10-17T21:14:12.329Z,100584.69
2018-10-17T21:16:41.219Z,100587.89
2018-10-17T21:19:09.613Z,100587.66
2018-10-17T21:21:37.698Z,100585.53
2018-10-17T21:24:06.079Z,100586.66
2018-10-17T21:26:34.336Z,100577.28
2018-10-17T21:29:02.618Z,100586.05
2018-10-17T21:31:30.690Z,100584.84
2018-10-17T21:33:58.770Z,100589.58
2018-10-17T21:36:26.848Z,100586.64
2018-10-17T21:38:54.931Z,100589.05
2018-10-17T21:41:23.014Z,100592.92
2018-10-17T21:43:51.100Z,100591.31
2018-10-17T21:46:19.176Z,100591.91
2018-10-17T21:48:47.260Z,100592.95
2018-10-17T21:51:15.335Z,100588.14
2018-10-17T21:53:43.547Z,100589.50
2018-10-17T21:56:11.700Z,100587.45
2018-10-17T21:58:39.816Z,100581.28
2018-10-17T22:01:08.163Z,100575.03
2018-10-17T22:03:36.292Z,100580.27
2018-10-17T22:06:04.375Z,100571.29
2018-10-17T22:08:32.509Z,100574.09
2018-10-17T22:11:00.595Z,100577.30
2018-10-17T22:13:28.698Z,100576.60
2018-10-17T22:15:56.835Z,100581.97
2018-10-17T22:18:24.899Z,100576.13
2018-10-17T22:20:52.972Z,100582.05
2018-10-17T22:23:21.036Z,100575.80
2018-10-17T22:25:49.167Z,100583.97
2018-10-17T22:28:17.228Z,100583.75
2018-10-17T22:30:45.306Z,100590.64
2018-10-17T22:33:13.366Z,100582.59
2018-10-17T22:35:41.439Z,100587.70
2018-10-17T22:38:09.503Z,100587.81
2018-10-17T22:40:37.571Z,100592.45
2018-10-17T22:43:06.096Z,100595.33
2018-10-17T22:45:34.200Z,100594.56
2018-10-17T22:48:02.259Z,100594.16
2018-10-17T22:50:30.332Z,100594.30
2018-10-17T22:52:58.390Z,100596.22
2018-10-17T22:55:26.591Z,100597.29
2018-10-17T22:57:54.517Z,100601.92
2018-10-17T23:00:22.590Z,100602.87
2018-10-17T23:02:50.656Z,100603.43
2018-10-17T23:05:18.812Z,100607.11
2018-10-17T23:07:46.870Z,100609.94
2018-10-17T23:10:14.956Z,100606.41
2018-10-17T23:12:43.059Z,100609.69
2018-10-17T23:15:13.011Z,100607.92
2018-10-17T23:17:41.080Z,100609.36
2018-10-17T23:20:09.317Z,100605.45
2018-10-17T23:22:37.450Z,100606.89
2018-10-17T23:25:06.547Z,100601.19
2018-10-17T23:27:34.640Z,100602.73
2018-10-17T23:30:02.712Z,100598.39
2018-10-17T23:32:30.788Z,100595.38
2018-10-17T23:34:58.856Z,100596.41
2018-10-17T23:37:26.928Z,100601.03
2018-10-17T23:39:55.094Z,100601.59
2018-10-17T23:42:23.202Z,100602.72
2018-10-17T23:44:51.240Z,100602.31
2018-10-17T23:47:19.315Z,100604.23
2018-10-17T23:49:47.562Z,100600.33
2018-10-17T23:52:16.043Z,100609.44
2018-10-17T23:54:44.188Z,100608.62
2018-10-17T23:57:12.254Z,100598.70
2018-10-17T23:59:40.322Z,100600.53
